CheckWX is a tool to help pilots better visualize weather data.  It is not intended as a substitute for an official pre-flight weather briefing.

20:26:55 UTC

KBAZ METAR
New Braunfels Regional Airport
New Braunfels, Texas, USA
Current

36 mins ago

KBAZ 211951Z 13011G20KT 10SM FEW055 35/19 A2998 RMK AO2 SLP141 T03500194
Observed
Sep-21 @ 19:51 UTC
Wind
  • 130° at 11 KTS
  • Gusting to 20 KTS
Visibility
10 SM
Flight Rules
VFR
Cloud Levels
  • Few at 5,500' AGL
Temperature
35°C / 95°F
Dewpoint
19°C / 66°F
Humidity
39%
Altimeter
29.98" Hg
Pressure
1015.22 hPa
Previous

2 hours ago

KBAZ 211851Z 12010KT 10SM FEW049 SCT080 35/21 A3000 RMK AO2 SLP149 T03500206
Observed
Sep-21 @ 18:51 UTC
Wind
  • 120° at 10 KTS
Visibility
10 SM
Flight Rules
VFR
Cloud Levels
  • Few at 4,900' AGL
  • Scattered at 8,000' AGL
Temperature
35°C / 95°F
Dewpoint
21°C / 70°F
Heat Index
38°C / 101°F
Humidity
44%
Altimeter
30" Hg
Pressure
1015.92 hPa
Previous

3 hours ago

KBAZ 211751Z 16012KT 10SM FEW040 BKN055 BKN070 33/21 A3003 RMK AO2 RAE1655 SLP159 P0000 60000 T03280211 10339 20256 58010
Observed
Sep-21 @ 17:51 UTC
Wind
  • 160° at 12 KTS
Visibility
10 SM
Flight Rules
VFR
Cloud Levels
  • Few at 4,000' AGL
  • Broken at 5,500' AGL
  • Broken at 7,000' AGL
Temperature
33°C / 91°F
Dewpoint
21°C / 70°F
Heat Index
36°C / 96°F
Humidity
49%
Altimeter
30.03" Hg
Pressure
1016.92 hPa
Current Rain
0.01"